sensor_id;sensor_type;location;lat;lon;timestamp;temperature;humidity
11188;DHT22;5650;52.700;7.306;2022-11-15T00:01:59;7.30;99.90
11188;DHT22;5650;52.700;7.306;2022-11-15T00:04:29;7.30;99.90
11188;DHT22;5650;52.700;7.306;2022-11-15T00:06:57;7.30;99.90
11188;DHT22;5650;52.700;7.306;2022-11-15T00:09:26;7.30;99.90
11188;DHT22;5650;52.700;7.306;2022-11-15T00:11:56;7.40;99.90
11188;DHT22;5650;52.700;7.306;2022-11-15T00:14:27;7.40;99.90
11188;DHT22;5650;52.700;7.306;2022-11-15T00:16:58;7.50;99.90
11188;DHT22;5650;52.700;7.306;2022-11-15T00:19:25;7.60;99.90
11188;DHT22;5650;52.700;7.306;2022-11-15T00:21:53;7.60;99.90
11188;DHT22;5650;52.700;7.306;2022-11-15T00:24:20;7.70;99.90
11188;DHT22;5650;52.700;7.306;2022-11-15T00:26:47;7.80;99.90
11188;DHT22;5650;52.700;7.306;2022-11-15T00:29:14;7.80;99.90
11188;DHT22;5650;52.700;7.306;2022-11-15T00:31:42;7.80;99.90
11188;DHT22;5650;52.700;7.306;2022-11-15T00:34:11;7.90;99.90
11188;DHT22;5650;52.700;7.306;2022-11-15T00:36:38;7.90;99.90
11188;DHT22;5650;52.700;7.306;2022-11-15T00:39:05;8.00;99.90
11188;DHT22;5650;52.700;7.306;2022-11-15T00:41:32;8.00;99.90
11188;DHT22;5650;52.700;7.306;2022-11-15T00:44:01;8.00;99.90
11188;DHT22;5650;52.700;7.306;2022-11-15T00:46:29;8.00;99.90
11188;DHT22;5650;52.700;7.306;2022-11-15T00:48:59;8.00;99.90
11188;DHT22;5650;52.700;7.306;2022-11-15T00:51:40;8.00;99.90
11188;DHT22;5650;52.700;7.306;2022-11-15T00:54:07;8.10;99.90
11188;DHT22;5650;52.700;7.306;2022-11-15T00:56:40;8.10;99.90
11188;DHT22;5650;52.700;7.306;2022-11-15T00:59:07;8.10;99.90
11188;DHT22;5650;52.700;7.306;2022-11-15T01:01:40;8.10;99.90
11188;DHT22;5650;52.700;7.306;2022-11-15T01:04:07;8.10;99.90
11188;DHT22;5650;52.700;7.306;2022-11-15T01:06:39;8.10;99.90
11188;DHT22;5650;52.700;7.306;2022-11-15T01:09:09;8.20;99.90
11188;DHT22;5650;52.700;7.306;2022-11-15T01:11:37;8.20;99.90
11188;DHT22;5650;52.700;7.306;2022-11-15T01:14:10;8.20;99.90
11188;DHT22;5650;52.700;7.306;2022-11-15T01:16:37;8.20;99.90
11188;DHT22;5650;52.700;7.306;2022-11-15T01:19:07;8.20;99.90
11188;DHT22;5650;52.700;7.306;2022-11-15T01:21:42;8.20;99.90
11188;DHT22;5650;52.700;7.306;2022-11-15T01:24:12;8.20;99.90
11188;DHT22;5650;52.700;7.306;2022-11-15T01:26:46;8.20;99.90
11188;DHT22;5650;52.700;7.306;2022-11-15T01:29:13;8.30;99.90
11188;DHT22;5650;52.700;7.306;2022-11-15T01:31:42;8.30;99.90
11188;DHT22;5650;52.700;7.306;2022-11-15T01:34:10;8.30;99.90
11188;DHT22;5650;52.700;7.306;2022-11-15T01:36:37;8.30;99.90
11188;DHT22;5650;52.700;7.306;2022-11-15T01:39:06;8.30;99.90
11188;DHT22;5650;52.700;7.306;2022-11-15T01:41:33;8.30;99.90
11188;DHT22;5650;52.700;7.306;2022-11-15T01:47:03;8.40;99.90
11188;DHT22;5650;52.700;7.306;2022-11-15T01:49:38;8.40;99.90
11188;DHT22;5650;52.700;7.306;2022-11-15T01:52:09;8.40;99.90
11188;DHT22;5650;52.700;7.306;2022-11-15T01:54:39;8.40;99.90
11188;DHT22;5650;52.700;7.306;2022-11-15T01:57:08;8.40;99.90
11188;DHT22;5650;52.700;7.306;2022-11-15T01:59:39;8.50;99.90
11188;DHT22;5650;52.700;7.306;2022-11-15T02:02:08;8.50;99.90
11188;DHT22;5650;52.700;7.306;2022-11-15T02:04:39;8.50;99.90
11188;DHT22;5650;52.700;7.306;2022-11-15T02:07:08;8.50;99.90
11188;DHT22;5650;52.700;7.306;2022-11-15T02:09:38;8.50;99.90
11188;DHT22;5650;52.700;7.306;2022-11-15T02:12:06;8.60;99.90
11188;DHT22;5650;52.700;7.306;2022-11-15T02:14:36;8.60;99.90
11188;DHT22;5650;52.700;7.306;2022-11-15T02:17:16;8.60;99.90
11188;DHT22;5650;52.700;7.306;2022-11-15T02:20:14;8.60;99.90
11188;DHT22;5650;52.700;7.306;2022-11-15T02:23:00;8.60;99.90
11188;DHT22;5650;52.700;7.306;2022-11-15T02:25:40;8.60;99.90
11188;DHT22;5650;52.700;7.306;2022-11-15T02:28:22;8.60;99.90
11188;DHT22;5650;52.700;7.306;2022-11-15T02:31:04;8.60;99.90
11188;DHT22;5650;52.700;7.306;2022-11-15T02:33:41;8.60;99.90
11188;DHT22;5650;52.700;7.306;2022-11-15T02:36:25;8.60;99.90
11188;DHT22;5650;52.700;7.306;2022-11-15T02:38:58;8.60;99.90
11188;DHT22;5650;52.700;7.306;2022-11-15T02:41:34;8.70;99.90
11188;DHT22;5650;52.700;7.306;2022-11-15T02:44:17;8.70;99.90
11188;DHT22;5650;52.700;7.306;2022-11-15T02:46:48;8.70;99.90
11188;DHT22;5650;52.700;7.306;2022-11-15T02:49:34;8.70;99.90
11188;DHT22;5650;52.700;7.306;2022-11-15T02:52:05;8.70;99.90
11188;DHT22;5650;52.700;7.306;2022-11-15T02:54:34;8.80;99.90
11188;DHT22;5650;52.700;7.306;2022-11-15T02:57:03;8.80;99.90
11188;DHT22;5650;52.700;7.306;2022-11-15T02:59:56;8.80;99.90
11188;DHT22;5650;52.700;7.306;2022-11-15T03:02:41;8.80;99.90
11188;DHT22;5650;52.700;7.306;2022-11-15T03:05:18;8.80;99.90
11188;DHT22;5650;52.700;7.306;2022-11-15T03:07:54;8.80;99.90
11188;DHT22;5650;52.700;7.306;2022-11-15T03:10:40;8.80;99.90
11188;DHT22;5650;52.700;7.306;2022-11-15T03:13:24;8.80;99.90
11188;DHT22;5650;52.700;7.306;2022-11-15T03:16:00;8.80;99.90
11188;DHT22;5650;52.700;7.306;2022-11-15T03:18:42;8.80;99.90
11188;DHT22;5650;52.700;7.306;2022-11-15T03:21:11;8.90;99.90
11188;DHT22;5650;52.700;7.306;2022-11-15T03:23:41;8.90;99.90
11188;DHT22;5650;52.700;7.306;2022-11-15T03:26:12;8.90;99.90
11188;DHT22;5650;52.700;7.306;2022-11-15T03:28:44;8.90;99.90
11188;DHT22;5650;52.700;7.306;2022-11-15T03:31:15;8.90;99.90
11188;DHT22;5650;52.700;7.306;2022-11-15T03:34:04;8.90;99.90
11188;DHT22;5650;52.700;7.306;2022-11-15T03:36:34;8.90;99.90
11188;DHT22;5650;52.700;7.306;2022-11-15T03:39:06;9.00;99.90
11188;DHT22;5650;52.700;7.306;2022-11-15T03:41:37;9.00;99.90
11188;DHT22;5650;52.700;7.306;2022-11-15T03:44:12;9.00;99.90
11188;DHT22;5650;52.700;7.306;2022-11-15T03:46:45;9.00;99.90
11188;DHT22;5650;52.700;7.306;2022-11-15T03:49:19;9.10;99.90
11188;DHT22;5650;52.700;7.306;2022-11-15T03:51:47;9.10;99.90
11188;DHT22;5650;52.700;7.306;2022-11-15T03:54:14;9.10;99.90
11188;DHT22;5650;52.700;7.306;2022-11-15T03:56:41;9.10;99.90
11188;DHT22;5650;52.700;7.306;2022-11-15T03:59:09;9.10;99.90
11188;DHT22;5650;52.700;7.306;2022-11-15T04:01:36;9.20;99.90
11188;DHT22;5650;52.700;7.306;2022-11-15T04:04:03;9.20;99.90
11188;DHT22;5650;52.700;7.306;2022-11-15T04:06:35;9.20;99.90
11188;DHT22;5650;52.700;7.306;2022-11-15T04:09:03;9.20;99.90
11188;DHT22;5650;52.700;7.306;2022-11-15T04:11:30;9.30;99.90
11188;DHT22;5650;52.700;7.306;2022-11-15T04:14:02;9.30;99.90
11188;DHT22;5650;52.700;7.306;2022-11-15T04:16:30;9.30;99.90
11188;DHT22;5650;52.700;7.306;2022-11-15T04:19:00;9.40;99.90
11188;DHT22;5650;52.700;7.306;2022-11-15T04:21:48;9.40;99.90
11188;DHT22;5650;52.700;7.306;2022-11-15T04:24:35;9.40;99.90
11188;DHT22;5650;52.700;7.306;2022-11-15T04:27:02;9.40;99.90
11188;DHT22;5650;52.700;7.306;2022-11-15T04:29:29;9.40;99.90
11188;DHT22;5650;52.700;7.306;2022-11-15T04:32:03;9.50;99.90
11188;DHT22;5650;52.700;7.306;2022-11-15T04:34:31;9.50;99.90
11188;DHT22;5650;52.700;7.306;2022-11-15T04:37:06;9.50;99.90
11188;DHT22;5650;52.700;7.306;2022-11-15T04:39:41;9.50;99.90
11188;DHT22;5650;52.700;7.306;2022-11-15T04:42:11;9.50;99.90
11188;DHT22;5650;52.700;7.306;2022-11-15T04:44:38;9.50;99.90
11188;DHT22;5650;52.700;7.306;2022-11-15T04:47:11;9.60;99.90
11188;DHT22;5650;52.700;7.306;2022-11-15T04:49:39;9.60;99.90
11188;DHT22;5650;52.700;7.306;2022-11-15T04:52:07;9.60;99.90
11188;DHT22;5650;52.700;7.306;2022-11-15T04:54:40;9.60;99.90
11188;DHT22;5650;52.700;7.306;2022-11-15T04:57:08;9.60;99.90
11188;DHT22;5650;52.700;7.306;2022-11-15T04:59:35;9.70;99.90
11188;DHT22;5650;52.700;7.306;2022-11-15T05:02:02;9.70;99.90
11188;DHT22;5650;52.700;7.306;2022-11-15T05:04:29;9.70;99.90
11188;DHT22;5650;52.700;7.306;2022-11-15T05:06:55;9.80;99.90
11188;DHT22;5650;52.700;7.306;2022-11-15T05:09:23;9.80;99.90
11188;DHT22;5650;52.700;7.306;2022-11-15T05:11:51;9.80;99.90
11188;DHT22;5650;52.700;7.306;2022-11-15T05:14:18;9.80;99.90
11188;DHT22;5650;52.700;7.306;2022-11-15T05:16:45;9.80;99.90
11188;DHT22;5650;52.700;7.306;2022-11-15T05:19:12;9.80;99.90
11188;DHT22;5650;52.700;7.306;2022-11-15T05:21:40;9.80;99.90
11188;DHT22;5650;52.700;7.306;2022-11-15T05:24:09;9.80;99.90
11188;DHT22;5650;52.700;7.306;2022-11-15T05:26:38;9.90;99.90
11188;DHT22;5650;52.700;7.306;2022-11-15T05:29:05;9.90;99.90
11188;DHT22;5650;52.700;7.306;2022-11-15T05:31:33;9.90;99.90
11188;DHT22;5650;52.700;7.306;2022-11-15T05:34:01;9.90;99.90
11188;DHT22;5650;52.700;7.306;2022-11-15T05:36:33;9.90;99.90
11188;DHT22;5650;52.700;7.306;2022-11-15T05:39:02;10.00;99.90
11188;DHT22;5650;52.700;7.306;2022-11-15T05:41:33;10.00;99.90
11188;DHT22;5650;52.700;7.306;2022-11-15T05:44:04;10.10;99.90
11188;DHT22;5650;52.700;7.306;2022-11-15T05:46:33;10.10;99.90
11188;DHT22;5650;52.700;7.306;2022-11-15T05:49:01;10.10;99.90
11188;DHT22;5650;52.700;7.306;2022-11-15T05:51:29;10.20;99.90
11188;DHT22;5650;52.700;7.306;2022-11-15T05:53:57;10.20;99.90
11188;DHT22;5650;52.700;7.306;2022-11-15T05:56:25;10.20;99.90
11188;DHT22;5650;52.700;7.306;2022-11-15T05:58:53;10.20;99.90
11188;DHT22;5650;52.700;7.306;2022-11-15T06:01:23;10.30;99.90
11188;DHT22;5650;52.700;7.306;2022-11-15T06:03:52;10.30;99.90
11188;DHT22;5650;52.700;7.306;2022-11-15T06:06:19;10.30;99.90
11188;DHT22;5650;52.700;7.306;2022-11-15T06:08:46;10.40;99.90
11188;DHT22;5650;52.700;7.306;2022-11-15T06:11:14;10.40;99.90
11188;DHT22;5650;52.700;7.306;2022-11-15T06:13:41;10.40;99.90
11188;DHT22;5650;52.700;7.306;2022-11-15T06:16:09;10.50;99.90
11188;DHT22;5650;52.700;7.306;2022-11-15T06:18:52;10.50;99.90
11188;DHT22;5650;52.700;7.306;2022-11-15T06:21:20;10.50;99.90
11188;DHT22;5650;52.700;7.306;2022-11-15T06:23:47;10.50;99.90
11188;DHT22;5650;52.700;7.306;2022-11-15T06:26:14;10.50;99.90
11188;DHT22;5650;52.700;7.306;2022-11-15T06:28:44;10.50;99.90
11188;DHT22;5650;52.700;7.306;2022-11-15T06:31:11;10.50;99.90
11188;DHT22;5650;52.700;7.306;2022-11-15T06:33:39;10.50;99.90
11188;DHT22;5650;52.700;7.306;2022-11-15T06:36:10;10.60;99.90
11188;DHT22;5650;52.700;7.306;2022-11-15T06:38:39;10.50;99.90
11188;DHT22;5650;52.700;7.306;2022-11-15T06:41:08;10.60;99.90
11188;DHT22;5650;52.700;7.306;2022-11-15T06:43:39;10.60;99.90
11188;DHT22;5650;52.700;7.306;2022-11-15T06:46:09;10.60;99.90
11188;DHT22;5650;52.700;7.306;2022-11-15T06:48:39;10.70;99.90
11188;DHT22;5650;52.700;7.306;2022-11-15T06:51:11;10.60;99.90
11188;DHT22;5650;52.700;7.306;2022-11-15T06:53:38;10.70;99.90
11188;DHT22;5650;52.700;7.306;2022-11-15T06:56:11;10.70;99.90
11188;DHT22;5650;52.700;7.306;2022-11-15T06:58:39;10.70;99.90
11188;DHT22;5650;52.700;7.306;2022-11-15T07:01:16;10.70;99.90
11188;DHT22;5650;52.700;7.306;2022-11-15T07:03:43;10.70;99.90
11188;DHT22;5650;52.700;7.306;2022-11-15T07:06:13;10.80;99.90
11188;DHT22;5650;52.700;7.306;2022-11-15T07:08:40;10.80;99.90
11188;DHT22;5650;52.700;7.306;2022-11-15T07:11:11;10.80;99.90
11188;DHT22;5650;52.700;7.306;2022-11-15T07:13:38;10.80;99.90
11188;DHT22;5650;52.700;7.306;2022-11-15T07:16:07;10.80;99.90
11188;DHT22;5650;52.700;7.306;2022-11-15T07:18:34;10.80;99.90
11188;DHT22;5650;52.700;7.306;2022-11-15T07:21:03;10.80;99.90
11188;DHT22;5650;52.700;7.306;2022-11-15T07:23:32;10.80;99.90
11188;DHT22;5650;52.700;7.306;2022-11-15T07:25:59;10.80;99.90
11188;DHT22;5650;52.700;7.306;2022-11-15T07:28:29;10.90;99.90
11188;DHT22;5650;52.700;7.306;2022-11-15T07:30:57;10.80;99.90
11188;DHT22;5650;52.700;7.306;2022-11-15T07:33:30;10.90;99.90
11188;DHT22;5650;52.700;7.306;2022-11-15T07:36:01;10.90;99.90
11188;DHT22;5650;52.700;7.306;2022-11-15T07:38:29;10.90;99.90
11188;DHT22;5650;52.700;7.306;2022-11-15T07:41:05;11.00;99.90
11188;DHT22;5650;52.700;7.306;2022-11-15T07:43:35;11.00;99.90
11188;DHT22;5650;52.700;7.306;2022-11-15T07:46:07;11.00;99.90
11188;DHT22;5650;52.700;7.306;2022-11-15T07:48:35;11.00;99.90
11188;DHT22;5650;52.700;7.306;2022-11-15T07:51:03;11.00;99.90
11188;DHT22;5650;52.700;7.306;2022-11-15T07:53:30;11.00;99.90
11188;DHT22;5650;52.700;7.306;2022-11-15T07:55:57;11.00;99.90
11188;DHT22;5650;52.700;7.306;2022-11-15T07:58:26;11.00;99.90
11188;DHT22;5650;52.700;7.306;2022-11-15T08:00:53;11.10;99.90
11188;DHT22;5650;52.700;7.306;2022-11-15T08:03:21;11.10;99.90
11188;DHT22;5650;52.700;7.306;2022-11-15T08:05:51;11.10;99.90
11188;DHT22;5650;52.700;7.306;2022-11-15T08:08:18;11.10;99.90
11188;DHT22;5650;52.700;7.306;2022-11-15T08:10:46;11.10;99.90
11188;DHT22;5650;52.700;7.306;2022-11-15T08:13:19;11.10;99.90
11188;DHT22;5650;52.700;7.306;2022-11-15T08:15:57;11.20;99.90
11188;DHT22;5650;52.700;7.306;2022-11-15T08:18:30;11.20;99.90
11188;DHT22;5650;52.700;7.306;2022-11-15T08:20:59;11.20;99.90
11188;DHT22;5650;52.700;7.306;2022-11-15T08:23:27;11.20;99.90
11188;DHT22;5650;52.700;7.306;2022-11-15T08:25:59;11.20;99.90
11188;DHT22;5650;52.700;7.306;2022-11-15T08:28:26;11.20;99.90
11188;DHT22;5650;52.700;7.306;2022-11-15T08:30:55;11.30;99.90
11188;DHT22;5650;52.700;7.306;2022-11-15T08:33:23;11.30;99.90
11188;DHT22;5650;52.700;7.306;2022-11-15T08:35:56;11.30;99.90
11188;DHT22;5650;52.700;7.306;2022-11-15T08:38:26;11.30;99.90
11188;DHT22;5650;52.700;7.306;2022-11-15T08:41:00;11.30;99.90
11188;DHT22;5650;52.700;7.306;2022-11-15T08:43:31;11.30;99.90
11188;DHT22;5650;52.700;7.306;2022-11-15T08:46:03;11.30;99.90
11188;DHT22;5650;52.700;7.306;2022-11-15T08:48:30;11.30;99.90
11188;DHT22;5650;52.700;7.306;2022-11-15T08:51:05;11.30;99.90
11188;DHT22;5650;52.700;7.306;2022-11-15T08:53:35;11.30;99.90
11188;DHT22;5650;52.700;7.306;2022-11-15T08:56:13;11.30;99.90
11188;DHT22;5650;52.700;7.306;2022-11-15T08:58:40;11.30;99.90
11188;DHT22;5650;52.700;7.306;2022-11-15T09:01:18;11.30;99.90
11188;DHT22;5650;52.700;7.306;2022-11-15T09:03:45;11.30;99.90
11188;DHT22;5650;52.700;7.306;2022-11-15T09:06:13;11.30;99.90
11188;DHT22;5650;52.700;7.306;2022-11-15T09:08:40;11.30;99.90
11188;DHT22;5650;52.700;7.306;2022-11-15T09:11:11;11.30;99.90
11188;DHT22;5650;52.700;7.306;2022-11-15T09:13:38;11.30;99.90
11188;DHT22;5650;52.700;7.306;2022-11-15T09:16:06;11.40;99.90
11188;DHT22;5650;52.700;7.306;2022-11-15T09:18:34;11.40;99.90
11188;DHT22;5650;52.700;7.306;2022-11-15T09:21:02;11.40;99.90
11188;DHT22;5650;52.700;7.306;2022-11-15T09:23:33;11.40;99.90
11188;DHT22;5650;52.700;7.306;2022-11-15T09:26:01;11.50;99.90
11188;DHT22;5650;52.700;7.306;2022-11-15T09:28:31;11.50;99.90
11188;DHT22;5650;52.700;7.306;2022-11-15T09:31:05;11.60;99.90
11188;DHT22;5650;52.700;7.306;2022-11-15T09:33:37;11.60;99.90
11188;DHT22;5650;52.700;7.306;2022-11-15T09:36:07;11.70;99.90
11188;DHT22;5650;52.700;7.306;2022-11-15T09:38:41;11.80;99.90
11188;DHT22;5650;52.700;7.306;2022-11-15T09:41:47;11.80;99.90
11188;DHT22;5650;52.700;7.306;2022-11-15T09:44:33;11.80;99.90
11188;DHT22;5650;52.700;7.306;2022-11-15T09:47:28;11.90;99.90
11188;DHT22;5650;52.700;7.306;2022-11-15T09:49:58;11.90;99.90
11188;DHT22;5650;52.700;7.306;2022-11-15T09:52:30;11.90;99.90
11188;DHT22;5650;52.700;7.306;2022-11-15T09:54:59;12.00;99.90
11188;DHT22;5650;52.700;7.306;2022-11-15T09:57:33;12.00;99.90
11188;DHT22;5650;52.700;7.306;2022-11-15T10:00:13;12.00;99.90
11188;DHT22;5650;52.700;7.306;2022-11-15T10:02:56;12.00;99.90
11188;DHT22;5650;52.700;7.306;2022-11-15T10:05:26;12.00;99.90
11188;DHT22;5650;52.700;7.306;2022-11-15T10:08:02;12.00;99.90
11188;DHT22;5650;52.700;7.306;2022-11-15T10:10:36;12.10;99.90
11188;DHT22;5650;52.700;7.306;2022-11-15T10:13:07;12.10;99.90
11188;DHT22;5650;52.700;7.306;2022-11-15T10:15:42;12.20;99.90
11188;DHT22;5650;52.700;7.306;2022-11-15T10:18:18;12.20;99.90
11188;DHT22;5650;52.700;7.306;2022-11-15T10:20:57;12.30;99.90
11188;DHT22;5650;52.700;7.306;2022-11-15T10:23:26;12.40;99.90
11188;DHT22;5650;52.700;7.306;2022-11-15T10:26:01;12.40;99.90
11188;DHT22;5650;52.700;7.306;2022-11-15T10:28:29;12.50;99.90
11188;DHT22;5650;52.700;7.306;2022-11-15T10:31:00;12.70;99.90
11188;DHT22;5650;52.700;7.306;2022-11-15T10:33:34;12.80;99.90
11188;DHT22;5650;52.700;7.306;2022-11-15T10:36:24;12.90;99.90
11188;DHT22;5650;52.700;7.306;2022-11-15T10:38:56;12.90;99.90
11188;DHT22;5650;52.700;7.306;2022-11-15T10:44:29;13.00;99.90
11188;DHT22;5650;52.700;7.306;2022-11-15T10:50:03;12.90;99.90
11188;DHT22;5650;52.700;7.306;2022-11-15T10:52:47;12.90;99.90
11188;DHT22;5650;52.700;7.306;2022-11-15T10:55:30;12.90;99.90
11188;DHT22;5650;52.700;7.306;2022-11-15T10:58:03;12.80;99.90
11188;DHT22;5650;52.700;7.306;2022-11-15T11:00:34;12.80;99.90
11188;DHT22;5650;52.700;7.306;2022-11-15T11:03:06;12.90;99.90
11188;DHT22;5650;52.700;7.306;2022-11-15T11:05:38;12.90;99.90
11188;DHT22;5650;52.700;7.306;2022-11-15T11:08:24;13.00;99.90
11188;DHT22;5650;52.700;7.306;2022-11-15T11:10:55;13.10;99.90
11188;DHT22;5650;52.700;7.306;2022-11-15T11:13:26;13.20;99.90
11188;DHT22;5650;52.700;7.306;2022-11-15T11:18:48;13.30;99.90
11188;DHT22;5650;52.700;7.306;2022-11-15T11:21:21;13.40;99.90
11188;DHT22;5650;52.700;7.306;2022-11-15T11:23:54;13.40;99.90
11188;DHT22;5650;52.700;7.306;2022-11-15T11:26:46;13.40;99.90
11188;DHT22;5650;52.700;7.306;2022-11-15T11:29:33;13.40;99.90
11188;DHT22;5650;52.700;7.306;2022-11-15T11:32:18;13.40;99.90
11188;DHT22;5650;52.700;7.306;2022-11-15T11:34:58;13.30;99.90
11188;DHT22;5650;52.700;7.306;2022-11-15T11:37:34;13.30;99.90
11188;DHT22;5650;52.700;7.306;2022-11-15T11:40:16;13.30;99.90
11188;DHT22;5650;52.700;7.306;2022-11-15T11:42:53;13.30;99.90
11188;DHT22;5650;52.700;7.306;2022-11-15T11:45:47;13.40;99.90
11188;DHT22;5650;52.700;7.306;2022-11-15T11:48:40;13.60;99.90
11188;DHT22;5650;52.700;7.306;2022-11-15T11:51:16;13.80;99.90
11188;DHT22;5650;52.700;7.306;2022-11-15T11:53:50;13.90;99.90
11188;DHT22;5650;52.700;7.306;2022-11-15T11:56:29;14.00;99.90
11188;DHT22;5650;52.700;7.306;2022-11-15T11:59:17;14.00;99.90
11188;DHT22;5650;52.700;7.306;2022-11-15T12:01:51;13.90;99.90
11188;DHT22;5650;52.700;7.306;2022-11-15T12:04:24;14.00;99.90
11188;DHT22;5650;52.700;7.306;2022-11-15T12:06:56;13.90;99.90
11188;DHT22;5650;52.700;7.306;2022-11-15T12:09:33;14.00;99.90
11188;DHT22;5650;52.700;7.306;2022-11-15T12:12:09;13.90;99.90
11188;DHT22;5650;52.700;7.306;2022-11-15T12:14:42;13.80;99.90
11188;DHT22;5650;52.700;7.306;2022-11-15T12:17:11;13.80;99.90
11188;DHT22;5650;52.700;7.306;2022-11-15T12:19:38;13.70;99.90
11188;DHT22;5650;52.700;7.306;2022-11-15T12:22:13;13.60;99.90
11188;DHT22;5650;52.700;7.306;2022-11-15T12:24:50;13.60;99.90
11188;DHT22;5650;52.700;7.306;2022-11-15T12:27:33;13.50;99.90
11188;DHT22;5650;52.700;7.306;2022-11-15T12:30:09;13.40;99.90
11188;DHT22;5650;52.700;7.306;2022-11-15T12:32:38;13.40;99.90
11188;DHT22;5650;52.700;7.306;2022-11-15T12:35:24;13.30;99.90
11188;DHT22;5650;52.700;7.306;2022-11-15T12:37:52;13.20;99.90
11188;DHT22;5650;52.700;7.306;2022-11-15T12:40:34;13.20;99.90
11188;DHT22;5650;52.700;7.306;2022-11-15T12:43:35;13.20;99.90
11188;DHT22;5650;52.700;7.306;2022-11-15T12:46:05;13.20;99.90
11188;DHT22;5650;52.700;7.306;2022-11-15T12:49:00;13.20;99.90
11188;DHT22;5650;52.700;7.306;2022-11-15T12:57:39;13.20;99.90
11188;DHT22;5650;52.700;7.306;2022-11-15T13:03:44;13.20;99.90
11188;DHT22;5650;52.700;7.306;2022-11-15T13:06:39;13.20;99.90
11188;DHT22;5650;52.700;7.306;2022-11-15T13:12:08;13.20;99.90
11188;DHT22;5650;52.700;7.306;2022-11-15T13:14:44;13.20;99.90
11188;DHT22;5650;52.700;7.306;2022-11-15T13:20:26;13.20;99.90
11188;DHT22;5650;52.700;7.306;2022-11-15T13:23:07;13.30;99.90
11188;DHT22;5650;52.700;7.306;2022-11-15T13:28:41;13.40;99.90
11188;DHT22;5650;52.700;7.306;2022-11-15T13:31:26;13.50;99.90
11188;DHT22;5650;52.700;7.306;2022-11-15T13:33:57;13.50;99.90
11188;DHT22;5650;52.700;7.306;2022-11-15T13:36:28;13.60;99.90
11188;DHT22;5650;52.700;7.306;2022-11-15T13:39:14;13.60;99.90
11188;DHT22;5650;52.700;7.306;2022-11-15T13:41:58;13.60;99.90
11188;DHT22;5650;52.700;7.306;2022-11-15T13:44:35;13.60;99.90
11188;DHT22;5650;52.700;7.306;2022-11-15T13:47:09;13.60;99.90
11188;DHT22;5650;52.700;7.306;2022-11-15T13:49:42;13.60;99.90
11188;DHT22;5650;52.700;7.306;2022-11-15T13:52:13;13.60;99.90
11188;DHT22;5650;52.700;7.306;2022-11-15T13:54:44;13.50;99.90
11188;DHT22;5650;52.700;7.306;2022-11-15T13:57:14;13.50;99.90
11188;DHT22;5650;52.700;7.306;2022-11-15T13:59:47;13.50;99.90
11188;DHT22;5650;52.700;7.306;2022-11-15T14:02:17;13.40;99.90
11188;DHT22;5650;52.700;7.306;2022-11-15T14:04:52;13.40;99.90
11188;DHT22;5650;52.700;7.306;2022-11-15T14:07:33;13.30;99.90
11188;DHT22;5650;52.700;7.306;2022-11-15T14:10:17;13.30;99.90
11188;DHT22;5650;52.700;7.306;2022-11-15T14:13:00;13.30;99.90
11188;DHT22;5650;52.700;7.306;2022-11-15T14:15:36;13.20;99.90
11188;DHT22;5650;52.700;7.306;2022-11-15T14:18:04;13.20;99.90
11188;DHT22;5650;52.700;7.306;2022-11-15T14:20:33;13.10;99.90
11188;DHT22;5650;52.700;7.306;2022-11-15T14:23:04;13.00;99.90
11188;DHT22;5650;52.700;7.306;2022-11-15T14:25:32;13.00;99.90
11188;DHT22;5650;52.700;7.306;2022-11-15T14:28:32;13.00;99.90
11188;DHT22;5650;52.700;7.306;2022-11-15T14:31:10;12.90;99.90
11188;DHT22;5650;52.700;7.306;2022-11-15T14:33:44;12.80;99.90
11188;DHT22;5650;52.700;7.306;2022-11-15T14:36:12;12.80;99.90
11188;DHT22;5650;52.700;7.306;2022-11-15T14:38:45;12.80;99.90
11188;DHT22;5650;52.700;7.306;2022-11-15T14:41:22;12.70;99.90
11188;DHT22;5650;52.700;7.306;2022-11-15T14:43:50;12.70;99.90
11188;DHT22;5650;52.700;7.306;2022-11-15T14:46:18;12.60;99.90
11188;DHT22;5650;52.700;7.306;2022-11-15T14:48:53;12.60;99.90
11188;DHT22;5650;52.700;7.306;2022-11-15T14:51:29;12.60;99.90
11188;DHT22;5650;52.700;7.306;2022-11-15T14:54:00;12.50;99.90
11188;DHT22;5650;52.700;7.306;2022-11-15T14:56:36;12.50;99.90
11188;DHT22;5650;52.700;7.306;2022-11-15T14:59:03;12.40;99.90
11188;DHT22;5650;52.700;7.306;2022-11-15T15:01:30;12.40;99.90
11188;DHT22;5650;52.700;7.306;2022-11-15T15:03:58;12.30;99.90
11188;DHT22;5650;52.700;7.306;2022-11-15T15:06:28;12.30;99.90
11188;DHT22;5650;52.700;7.306;2022-11-15T15:08:56;12.20;99.90
11188;DHT22;5650;52.700;7.306;2022-11-15T15:11:26;12.20;99.90
11188;DHT22;5650;52.700;7.306;2022-11-15T15:13:54;12.10;99.90
11188;DHT22;5650;52.700;7.306;2022-11-15T15:16:23;12.10;99.90
11188;DHT22;5650;52.700;7.306;2022-11-15T15:18:50;12.00;99.90
11188;DHT22;5650;52.700;7.306;2022-11-15T15:21:20;12.00;99.90
11188;DHT22;5650;52.700;7.306;2022-11-15T15:23:48;11.90;99.90
11188;DHT22;5650;52.700;7.306;2022-11-15T15:26:15;11.80;99.90
11188;DHT22;5650;52.700;7.306;2022-11-15T15:28:44;11.80;99.90
11188;DHT22;5650;52.700;7.306;2022-11-15T15:31:11;11.70;99.90
11188;DHT22;5650;52.700;7.306;2022-11-15T15:33:39;11.70;99.90
11188;DHT22;5650;52.700;7.306;2022-11-15T15:36:09;11.60;99.90
11188;DHT22;5650;52.700;7.306;2022-11-15T15:38:37;11.50;99.90
11188;DHT22;5650;52.700;7.306;2022-11-15T15:41:09;11.50;99.90
11188;DHT22;5650;52.700;7.306;2022-11-15T15:43:37;11.40;99.90
11188;DHT22;5650;52.700;7.306;2022-11-15T15:46:08;11.30;99.90
11188;DHT22;5650;52.700;7.306;2022-11-15T15:48:36;11.30;99.90
11188;DHT22;5650;52.700;7.306;2022-11-15T15:51:05;11.20;99.90
11188;DHT22;5650;52.700;7.306;2022-11-15T15:53:32;11.20;99.90
11188;DHT22;5650;52.700;7.306;2022-11-15T15:56:00;11.20;99.90
11188;DHT22;5650;52.700;7.306;2022-11-15T15:58:27;11.10;99.90
11188;DHT22;5650;52.700;7.306;2022-11-15T16:00:55;11.10;99.90
11188;DHT22;5650;52.700;7.306;2022-11-15T16:03:23;11.00;99.90
11188;DHT22;5650;52.700;7.306;2022-11-15T16:05:51;11.00;99.90
11188;DHT22;5650;52.700;7.306;2022-11-15T16:08:18;10.90;99.90
11188;DHT22;5650;52.700;7.306;2022-11-15T16:10:46;10.90;99.90
11188;DHT22;5650;52.700;7.306;2022-11-15T16:13:14;10.80;99.90
11188;DHT22;5650;52.700;7.306;2022-11-15T16:15:42;10.80;99.90
11188;DHT22;5650;52.700;7.306;2022-11-15T16:18:16;10.70;99.90
11188;DHT22;5650;52.700;7.306;2022-11-15T16:20:46;10.70;99.90
11188;DHT22;5650;52.700;7.306;2022-11-15T16:23:17;10.60;99.90
11188;DHT22;5650;52.700;7.306;2022-11-15T16:25:48;10.60;99.90
11188;DHT22;5650;52.700;7.306;2022-11-15T16:28:18;10.60;99.90
11188;DHT22;5650;52.700;7.306;2022-11-15T16:30:58;10.50;99.90
11188;DHT22;5650;52.700;7.306;2022-11-15T16:33:26;10.50;99.90
11188;DHT22;5650;52.700;7.306;2022-11-15T16:35:54;10.40;99.90
11188;DHT22;5650;52.700;7.306;2022-11-15T16:38:22;10.40;99.90
11188;DHT22;5650;52.700;7.306;2022-11-15T16:40:49;10.30;99.90
11188;DHT22;5650;52.700;7.306;2022-11-15T16:43:16;10.30;99.90
11188;DHT22;5650;52.700;7.306;2022-11-15T16:45:43;10.30;99.90
11188;DHT22;5650;52.700;7.306;2022-11-15T16:48:20;10.20;99.90
11188;DHT22;5650;52.700;7.306;2022-11-15T16:50:48;10.20;99.90
11188;DHT22;5650;52.700;7.306;2022-11-15T16:53:17;10.20;99.90
11188;DHT22;5650;52.700;7.306;2022-11-15T16:55:44;10.10;99.90